AirNav   Everest Fuels
 
 984 users online  

2M4 G V Montgomery Airport
Forest, Mississippi, USA

GOING TO FOREST?


FAA INFORMATION EFFECTIVE 01 DECEMBER 2022

Location

FAA Identifier: 2M4
Lat/Long: 32-21-17.8000N 089-29-17.4000W
32-21.296667N 089-29.290000W
32.3549444,-89.4881667
(estimated)
Elevation: 518.3 ft. / 158.0 m (surveyed)
Variation: 02E (1985)
From city: 1 mile S of FOREST, MS
Time zone: UTC -6 (UTC -5 during Daylight Saving Time)
Zip code: 39074

Airport Operations

Airport use: Open to the public
Control tower: no
ARTCC: MEMPHIS CENTER
FSS: GREENWOOD FLIGHT SERVICE STATION
NOTAMs facility: GWO (NOTAM-D service available)
Attendance: UNATNDD
Wind indicator: lighted
Segmented circle: yes
Lights: MIRL RWY 17/35 OPS 1700-2200; AFT 2200 ACTVT - CTAF.
Beacon: white-green (lighted land airport)
Operates sunset to sunrise.

Airport Communications

CTAF/UNICOM: 122.8

Nearby radio navigation aids

VOR radial/distance  VOR name  Freq  Var
MHZr100/31.3MAGNOLIA VORTAC113.2001W
MEIr263/34.7MERIDIAN VORTAC117.0005E

Airport Services

Parking: tiedowns
Airframe service: NONE
Powerplant service: NONE
Bottled oxygen: NONE
Bulk oxygen: NONE

Runway Information

Runway 17/35

Dimensions: 3602 x 75 ft. / 1098 x 23 m
Surface: asphalt, in fair condition
Weight bearing capacity: 
Single wheel: 25.0
Runway edge lights: medium intensity
RUNWAY 17  RUNWAY 35
Latitude: 32-21.582278N32-21.011120N
Longitude: 089-29.386510W089-29.194222W
Elevation: 511.2 ft.514.0 ft.
Traffic pattern: leftleft
Runway heading: 162 magnetic, 164 true342 magnetic, 344 true
Markings: basic, in good conditionbasic, in good condition
Touchdown point: yes, no lightsyes, no lights
Obstructions: 50 ft. trees, 1500 ft. from runway, 26:1 slope to clear59 ft. tree, 1200 ft. from runway, 16:1 slope to clear

Airport Ownership and Management from official FAA records

Ownership: Publicly-owned
Owner: CITY OF FOREST
PO BOX 298
FOREST, MS 39074
Phone 601-469-2921
Manager: RANDALL GEORGE
CITY OF FOREST, PO BOX 298
FOREST, MS 39074
Phone 601-469-2921

Airport Operational Statistics

Aircraft based on the field: 2
Single engine airplanes: 2
    
Aircraft operations: avg 20/week *
65% transient general aviation
35% local general aviation
* for 12-month period ending 11 March 2022

Additional Remarks

FOR CD CTC MEMPHIS ARTCC AT 901-368-8453/8449.

Instrument Procedures

There are no published instrument procedures at 2M4.

Some nearby airports with instrument procedures:

KJAN - Jackson-Medgar Wiley Evers International Airport (30 nm W)
KMBO - Bruce Campbell Field Airport (32 nm W)
KMPE - Philadelphia Municipal Airport (32 nm NE)
17M - Magee Municipal Airport (34 nm SW)
KHKS - Hawkins Field Airport (37 nm W)
 
Loc | Ops | Rwys | IFR | FBO | Links
Com | Nav | Svcs | Stats | Notes
Area around 2M4 (G V Montgomery Airport)
 
Road maps at: MapQuest Bing Google
 
Aerial photo
WARNING: Photo may not be current or correct
Aerial photo of 2M4 (G V Montgomery Airport)
Do you have a better or more recent aerial photo of G V Montgomery Airport that you would like to share? If so, please send us your photo.

 
Sectional chart

 
Airport distance calculator
Flying to G V Montgomery Airport? Find the distance to fly.

From to 2M4

Sunrise and sunset
Times for 01-Dec-2022
 Local
(UTC-6)
 Zulu
(UTC)
Morning civil twilight06:1612:16
Sunrise06:4212:42
Sunset16:5222:52
Evening civil twilight17:1823:18

Current date and time
Zulu (UTC)  01-Dec-2022 13:54:53
Local (UTC-6)  01-Dec-2022 07:54:53
 
METAR
KJAN 
30nm W 
011254Z 05005KT 10SM CLR 01/M04 A3047 RMK AO2 SLP320 T00061044
KMBO 
32nm W 
011335Z AUTO 09007G13KT 050V120 10SM CLR 03/M03 A3046 RMK AO2
KHKS 
37nm W 
011253Z 08008KT 10SM CLR 03/M05 A3046 RMK AO2 SLP312 T00281050
KMEI 
37nm E 
011258Z 04005KT 10SM CLR 01/M03 A3048 RMK AO2 SLP322 I1002 T00111033
KNJW 
42nm NE 
011257Z AUTO 00000KT 10SM CLR 00/M05 A3051 RMK AO2 SLP248 T00001050 $
KJVW 
47nm W 
011335Z AUTO 00000KT 10SM CLR 02/00 A3047 RMK AO2
KNMM 
48nm E 
011256Z 03003KT 10SM CLR 01/M04 A3049 RMK AO2 SLP336 T00061039 $
TAF
KJAN 
30nm W 
011138Z 0112/0212 06010G18KT P6SM SKC FM020000 14004KT P6SM BKN250
KHKS 
37nm W 
011138Z 0112/0212 06010G18KT P6SM SKC FM020000 14004KT P6SM BKN250
KMEI 
37nm E 
011138Z 0112/0212 35004KT P6SM SKC FM020000 09005KT P6SM BKN250
NOTAMs
Click for the latest NOTAMs
NOTAMs are issued by the DoD/FAA and will open in a separate window not controlled by AirNav.

 

 
 

Would you like to see your business listed on this page?

 If your business provides an interesting product or service to pilots, flight crews, aircraft, or users of the G V Montgomery Airport, you should consider listing it here.  To start the listing process, click on the button below
 
Add a business
 

Other Pages about G V Montgomery Airport

Update a link
 
Copyright © AirNav, LLC. All rights reserved. Privacy Policy  Contact